^^
Grace C. Lehan Memorial Weather Station Historical Data
Daily Summary for May 25, 2021 Units:  English    Metric   Both
Daily Weekly Monthly Yearly
  High: Low: Average:
Temperature: 54 °F 50.4 °F 52.3 °F
Dew Point: 52.9 °F 48.9 °F 51 °F
Humidity: 96% 90% 95%
Wind Speed: 1mph 0mph 0.1mph
Wind Gust: 13mph - -
Wind- - SSE
Pressure: 30.14 in 29.83 in -
Precipitation: 0.37 in    
 
 
Tabular Data for May 25, 2021
Time Temperature Dew Point Pressure Wind Wind Speed Wind Gust Humidity Rainfall Rate (Hourly) solar
00:00 52.3 °F 49.5 °F 30.14 in Calm     90% 0.03 in 0 W/m2
00:09 52.3 °F 49.4 °F 30.13 in Calm     90% 0.03 in 0 W/m2
00:14 52.1 °F 49.3 °F 30.13 in Calm     90% 0.03 in 0 W/m2
00:19 51.9 °F 49.1 °F 30.13 in Calm     90.1% 0.03 in 0 W/m2
00:24 51.9 °F 49.4 °F 30.13 in Calm     91% 0.03 in 0 W/m2
00:29 51.8 °F 49.3 °F 30.13 in Calm     91% 0.03 in 0 W/m2
00:34 51.9 °F 49.3 °F 30.13 in Calm     91% 0.03 in 0 W/m2
00:39 51.9 °F 49.3 °F 30.13 in Calm     91% 0.02 in 0 W/m2
00:44 51.8 °F 49.2 °F 30.13 in Calm     91% 0.02 in 0 W/m2
00:49 51.7 °F 49.2 °F 30.13 in Calm     91% 0.02 in 0 W/m2
00:54 51.6 °F 49.2 °F 30.13 in Calm     91.6% 0.02 in 0 W/m2
00:59 51.5 °F 49.2 °F 30.13 in Calm     92% 0.03 in 0 W/m2
01:04 51.4 °F 49.2 °F 30.13 in Calm     92% 0.03 in 0 W/m2
01:09 51.4 °F 49.1 °F 30.13 in Calm     92% 0.03 in 0 W/m2
01:14 51.3 °F 49.1 °F 30.13 in Calm     92% 0.03 in 0 W/m2
01:19 51.3 °F 49.1 °F 30.12 in Calm     92% 0.04 in 0 W/m2
01:24 51.3 °F 49.1 °F 30.12 in Calm     92% 0.04 in 0 W/m2
01:29 51.3 °F 49.1 °F 30.11 in Calm     92% 0.04 in 0 W/m2
01:34 51.3 °F 49.3 °F 30.11 in Calm     92.9% 0.05 in 0 W/m2
01:39 51.3 °F 49.3 °F 30.11 in Calm   1 mph 93% 0.05 in 0 W/m2
01:44 51.2 °F 49.3 °F 30.11 in Calm   1 mph 93% 0.05 in 0 W/m2
01:49 51.2 °F 49.3 °F 30.11 in Calm   1 mph 93% 0.05 in 0 W/m2
01:54 51.1 °F 49.2 °F 30.11 in Calm   1 mph 93% 0.06 in 0 W/m2
01:59 51 °F 49.1 °F 30.11 in Calm   1 mph 93% 0.07 in 0 W/m2
02:04 50.9 °F 49 °F 30.10 in Calm   1 mph 93% 0.07 in 0 W/m2
02:09 50.9 °F 48.9 °F 30.10 in Calm     93% 0.06 in 0 W/m2
02:14 50.9 °F 48.9 °F 30.10 in Calm     93% 0.07 in 0 W/m2
02:19 50.9 °F 49 °F 30.10 in Calm     93% 0.08 in 0 W/m2
02:24 50.9 °F 49.2 °F 30.10 in Calm     93.9% 0.08 in 0 W/m2
02:29 50.9 °F 49.2 °F 30.09 in Calm     94% 0.09 in 0 W/m2
02:34 50.9 °F 49.2 °F 30.09 in Calm     94% 0.09 in 0 W/m2
02:39 51 °F 49.3 °F 30.09 in Calm     94% 0.09 in 0 W/m2
02:44 51 °F 49.3 °F 30.09 in Calm     94% 0.10 in 0 W/m2
02:49 50.9 °F 49.3 °F 30.09 in Calm     94% 0.11 in 0 W/m2
02:54 51 °F 49.3 °F 30.09 in Calm     94% 0.12 in 0 W/m2
02:59 51 °F 49.3 °F 30.09 in Calm     94% 0.13 in 0 W/m2
03:04 50.9 °F 49.3 °F 30.08 in Calm     94% 0.13 in 0 W/m2
03:09 50.9 °F 49.2 °F 30.08 in Calm     94% 0.12 in 0 W/m2
03:14 50.9 °F 49.2 °F 30.08 in Calm     94% 0.13 in 0 W/m2
03:19 50.9 °F 49.2 °F 30.08 in Calm     94% 0.14 in 0 W/m2
03:24 50.9 °F 49.2 °F 30.08 in Calm     94% 0.15 in 0 W/m2
03:29 50.9 °F 49.2 °F 30.07 in Calm     94% 0.16 in 0 W/m2
03:34 50.9 °F 49.2 °F 30.07 in Calm     94% 0.16 in 0 W/m2
03:39 50.9 °F 49.3 °F 30.07 in Calm     94% 0.13 in 0 W/m2
03:44 51 °F 49.3 °F 30.06 in Calm     94% 0.14 in 0 W/m2
03:49 51 °F 49.3 °F 30.06 in Calm     94% 0.14 in 0 W/m2
03:54 51 °F 49.3 °F 30.06 in Calm     94% 0.14 in 0 W/m2
03:59 51 °F 49.4 °F 30.05 in Calm     94.1% 0.14 in 0 W/m2
04:09 51 °F 49.6 °F 30.05 in Calm     95% 0.15 in 0 W/m2
04:14 51 °F 49.6 °F 30.05 in Calm     95% 0.15 in 0 W/m2
04:19 51.1 °F 49.7 °F 30.05 in Calm     95% 0.15 in 0 W/m2
04:24 51.1 °F 49.7 °F 30.04 in Calm     95% 0.16 in 0 W/m2
04:29 51.1 °F 49.7 °F 30.04 in Calm     95% 0.16 in 0 W/m2
04:34 51.1 °F 49.7 °F 30.04 in Calm     95% 0.16 in 0 W/m2
04:39 51.2 °F 49.8 °F 30.04 in Calm     95% 0.05 in 0 W/m2
04:44 51.2 °F 49.8 °F 30.04 in Calm     95% 0.05 in 0 W/m2
04:49 51.2 °F 49.8 °F 30.03 in Calm     95% 0.05 in 0 W/m2
04:53 51.2 °F 49.8 °F 30.03 in Calm     95% 0.05 in 0 W/m2
04:59 51.2 °F 49.8 °F 30.03 in Calm     95% 0.05 in 0 W/m2
05:04 51.3 °F 49.9 °F 30.03 in Calm     95% 0.05 in 0 W/m2
05:09 51.4 °F 50 °F 30.03 in Calm     95% 0.01 in 0 W/m2
05:14 51.4 °F 50.1 °F 30.03 in Calm     95% 0.01 in 0 W/m2
05:19 51.5 °F 50.1 °F 30.03 in Calm     95% 0.02 in 0 W/m2
05:24 51.5 °F 50.1 °F 30.03 in Calm     95% 0.02 in 0 W/m2
05:29 51.5 °F 50.1 °F 30.02 in Calm     95% 0.02 in 0 W/m2
05:34 51.5 °F 50.1 °F 30.02 in Calm     95% 0.02 in 0 W/m2
05:39 51.5 °F 50.1 °F 30.02 in Calm     95% 0.02 in 0 W/m2
05:44 51.5 °F 50.1 °F 30.02 in Calm     95% 0.02 in 0 W/m2
05:49 51.6 °F 50.2 °F 30.02 in Calm     95% 0.02 in 0 W/m2
05:54 51.6 °F 50.2 °F 30.02 in Calm     95% 0.02 in 0 W/m2
05:59 51.6 °F 50.2 °F 30.02 in Calm     95% 0.02 in 0 W/m2
06:04 51.6 °F 50.2 °F 30.02 in Calm     95% 0.02 in 0 W/m2
06:09 51.6 °F 50.2 °F 30.03 in Calm   1 mph 95% 0.03 in 0 W/m2
06:14 51.6 °F 50.2 °F 30.03 in Calm   1 mph 95% 0.04 in 0 W/m2
06:19 51.5 °F 50.1 °F 30.03 in NNW 0.1 mph 1 mph 95% 0.05 in 0 W/m2
06:24 51.5 °F 50.1 °F 30.03 in NNE 0.2 mph 1 mph 95% 0.05 in 0 W/m2
06:29 51.5 °F 50.1 °F 30.02 in NE 0.2 mph 1 mph 95% 0.06 in 0 W/m2
06:34 51.6 °F 50.2 °F 30.03 in NE 0.2 mph 2 mph 95% 0.06 in 0 W/m2
06:39 51.7 °F 50.3 °F 30.03 in Calm   2 mph 95% 0.05 in 0 W/m2
06:44 51.7 °F 50.3 °F 30.02 in Calm   2 mph 95% 0.06 in 0 W/m2
06:49 51.7 °F 50.5 °F 30.02 in Calm   2 mph 95.6% 0.06 in 0 W/m2
06:54 51.8 °F 50.7 °F 30.01 in Calm   2 mph 96% 0.06 in 0 W/m2
06:59 51.8 °F 50.6 °F 30.00 in NE 0.5 mph 2 mph 95.7% 0.06 in 0 W/m2
07:04 51.8 °F 50.5 °F 30.00 in Calm   2 mph 95.3% 0.06 in 0 W/m2
07:09 51.9 °F 50.6 °F 30.01 in Calm     95.5% 0.06 in 0 W/m2
07:14 51.9 °F 50.8 °F 30.01 in Calm     96% 0.06 in 0 W/m2
07:19 52 °F 50.9 °F 30.00 in Calm     96% 0.06 in 0 W/m2
07:24 52 °F 50.9 °F 30.01 in Calm     96% 0.06 in 0 W/m2
07:29 52.1 °F 51 °F 30.01 in Calm     96% 0.06 in 0 W/m2
07:34 52.2 °F 51.1 °F 30.01 in Calm     96% 0.06 in 0 W/m2
07:39 52.4 °F 51.3 °F 30.01 in Calm   1 mph 96% 0.01 in 5 W/m2
07:44 52.5 °F 51.4 °F 30.00 in Calm   1 mph 96% 0.01 in 5 W/m2
07:49 52.6 °F 51.5 °F 30.00 in Calm   1 mph 96% 0.01 in 5 W/m2
07:54 52.6 °F 51.5 °F 30.00 in Calm   1 mph 96% 0.01 in 0 W/m2
07:59 52.5 °F 51.4 °F 30.00 in Calm   1 mph 96% 0.01 in 5 W/m2
08:00 52.5 °F 51.4 °F 30.00 in Calm   1 mph 96% 0.01 in 5 W/m2
08:09 52.3 °F 51.2 °F 29.99 in Calm   1 mph 96% 0.00 in 7 W/m2
08:14 52.3 °F 51.2 °F 29.99 in Calm   1 mph 96% 0.00 in 9 W/m2
08:19 52.3 °F 51.2 °F 29.99 in Calm   1 mph 96% 0.00 in 9 W/m2
08:24 52.2 °F 51.1 °F 29.99 in Calm   1 mph 96% 0.00 in 5 W/m2
08:29 52.2 °F 51.1 °F 29.98 in ENE 0.1 mph 1 mph 96% 0.00 in 7 W/m2
08:34 52.1 °F 51 °F 29.99 in Calm   1 mph 96% 0.00 in 5 W/m2
08:39 52.1 °F 51 °F 29.99 in ENE 0.1 mph 1 mph 96% 0.00 in 12 W/m2
08:44 52.1 °F 51 °F 29.99 in ENE 0.1 mph 2 mph 96% 0.00 in 14 W/m2
08:49 52.1 °F 51 °F 29.99 in North 0.3 mph 2 mph 96% 0.00 in 19 W/m2
08:54 52.1 °F 51 °F 29.99 in Calm   2 mph 96% 0.00 in 18 W/m2
08:59 52.1 °F 51 °F 30.00 in WNW 0.1 mph 2 mph 96% 0.00 in 21 W/m2
09:04 52.1 °F 51 °F 29.99 in NNW 0.2 mph 2 mph 96% 0.00 in 21 W/m2
09:09 52.1 °F 51 °F 29.99 in NNW 0.1 mph 1 mph 96% 0.00 in 19 W/m2
09:14 52.1 °F 51 °F 29.99 in North 0.1 mph 1 mph 96% 0.00 in 23 W/m2
09:19 52.1 °F 51 °F 29.99 in Calm   1 mph 96% 0.00 in 21 W/m2
09:24 52.1 °F 51 °F 29.99 in North 0.1 mph 1 mph 96% 0.00 in 21 W/m2
09:29 52.2 °F 51.1 °F 29.99 in Calm   1 mph 96% 0.00 in 23 W/m2
09:34 52.2 °F 51.1 °F 29.99 in Calm   1 mph 96% 0.00 in 32 W/m2
09:39 52.3 °F 51.2 °F 29.98 in Calm     96% 0.00 in 39 W/m2
09:44 52.3 °F 51.2 °F 29.98 in Calm     96% 0.00 in 35 W/m2
09:49 52.4 °F 51.3 °F 29.98 in Calm   2 mph 96% 0.00 in 26 W/m2
09:54 52.4 °F 51.3 °F 29.98 in Calm   2 mph 96% 0.00 in 33 W/m2
09:59 52.4 °F 51.3 °F 29.98 in Calm   2 mph 96% 0.00 in 33 W/m2
10:04 52.4 °F 51.3 °F 29.98 in Calm   2 mph 96% 0.00 in 46 W/m2
10:09 52.5 °F 51.4 °F 29.98 in Calm   1 mph 96% 0.00 in 49 W/m2
10:14 52.4 °F 51.3 °F 29.98 in Calm   1 mph 96% 0.00 in 60 W/m2
10:19 52.5 °F 51.4 °F 29.97 in NNW 0.1 mph 2 mph 96% 0.00 in 58 W/m2
10:24 52.5 °F 51.4 °F 29.97 in NNW 0.1 mph 2 mph 96% 0.00 in 49 W/m2
10:29 52.5 °F 51.4 °F 29.97 in Calm   2 mph 96% 0.00 in 49 W/m2
10:34 52.5 °F 51.4 °F 29.97 in Calm   2 mph 96% 0.00 in 53 W/m2
10:39 52.5 °F 51.4 °F 29.97 in NNW 0.2 mph 2 mph 96% 0.00 in 47 W/m2
10:44 52.5 °F 51.4 °F 29.97 in Calm   2 mph 96% 0.00 in 46 W/m2
10:49 52.6 °F 51.5 °F 29.97 in NNW 0.2 mph 2 mph 96% 0.00 in 49 W/m2
10:54 52.6 °F 51.5 °F 29.97 in Calm   2 mph 96% 0.00 in 70 W/m2
10:59 52.7 °F 51.6 °F 29.97 in Calm   2 mph 96% 0.00 in 76 W/m2
11:04 52.8 °F 51.7 °F 29.96 in Calm   2 mph 96% 0.00 in 76 W/m2
11:09 52.9 °F 51.8 °F 29.96 in Calm     96% 0.00 in 90 W/m2
11:14 52.9 °F 51.8 °F 29.96 in Calm     96% 0.00 in 84 W/m2
11:19 53 °F 51.9 °F 29.96 in NNW 0.3 mph 3 mph 96% 0.00 in 83 W/m2
11:24 53 °F 51.9 °F 29.96 in NNW 0.3 mph 3 mph 96% 0.00 in 84 W/m2
11:29 53 °F 51.9 °F 29.96 in Calm   3 mph 96% 0.00 in 79 W/m2
11:34 53 °F 51.9 °F 29.96 in Calm   3 mph 96% 0.00 in 93 W/m2
11:39 53.1 °F 52 °F 29.95 in Calm     96% 0.00 in 93 W/m2
11:44 53.2 °F 52.1 °F 29.95 in NNW 0.1 mph 1 mph 96% 0.00 in 95 W/m2
11:49 53.3 °F 52.2 °F 29.95 in Calm   1 mph 96% 0.00 in 90 W/m2
11:54 53.4 °F 52.3 °F 29.95 in Calm   1 mph 96% 0.00 in 65 W/m2
11:59 53.4 °F 52.3 °F 29.95 in Calm   1 mph 96% 0.00 in 70 W/m2
12:00 53.4 °F 52.3 °F 29.95 in Calm   1 mph 96% 0.00 in 76 W/m2
12:09 53.4 °F 52.3 °F 29.94 in Calm     96% 0.00 in 107 W/m2
12:14 53.5 °F 52.4 °F 29.95 in NNW 0.1 mph 1 mph 96% 0.00 in 127 W/m2
12:19 53.7 °F 52.6 °F 29.95 in NNW 0.2 mph 2 mph 96% 0.00 in 127 W/m2
12:24 53.7 °F 52.6 °F 29.95 in Calm   2 mph 96% 0.00 in 84 W/m2
12:29 53.7 °F 52.6 °F 29.94 in Calm   2 mph 96% 0.00 in 81 W/m2
12:34 53.8 °F 52.7 °F 29.94 in Calm   2 mph 96% 0.00 in 95 W/m2
12:39 53.8 °F 52.7 °F 29.94 in Calm     96% 0.00 in 102 W/m2
12:44 53.8 °F 52.6 °F 29.94 in North 0.1 mph 1 mph 96% 0.00 in 120 W/m2
12:49 53.8 °F 52.7 °F 29.94 in Calm   1 mph 96% 0.00 in 120 W/m2
12:54 53.9 °F 52.8 °F 29.94 in NNW 0.1 mph 5 mph 96% 0.00 in 114 W/m2
12:59 53.9 °F 52.8 °F 29.93 in NNW 0.2 mph 5 mph 96% 0.00 in 123 W/m2
13:04 54 °F 52.9 °F 29.93 in NNE 0.1 mph 5 mph 96% 0.00 in 116 W/m2
13:09 53.9 °F 52.8 °F 29.93 in North 0.2 mph 3 mph 96% 0.00 in 121 W/m2
13:14 53.9 °F 52.8 °F 29.93 in NE 0.2 mph 3 mph 96% 0.00 in 90 W/m2
13:19 53.9 °F 52.8 °F 29.92 in NE 0.5 mph 3 mph 96% 0.00 in 95 W/m2
13:24 53.8 °F 52.6 °F 29.92 in East 0.2 mph 3 mph 96% 0.00 in 84 W/m2
13:29 53.7 °F 52.6 °F 29.92 in ENE 0.1 mph 3 mph 96% 0.00 in 65 W/m2
13:34 53.6 °F 52.5 °F 29.92 in NNE 0.1 mph 3 mph 96% 0.00 in 63 W/m2
13:39 53.6 °F 52.5 °F 29.92 in North 0.4 mph 2 mph 96% 0.00 in 63 W/m2
13:44 53.6 °F 52.5 °F 29.92 in NNE 0.2 mph 5 mph 96% 0.00 in 56 W/m2
13:49 53.6 °F 52.5 °F 29.92 in ENE 0.4 mph 5 mph 96% 0.00 in 60 W/m2
13:54 53.5 °F 52.4 °F 29.91 in NNE 0.3 mph 5 mph 96% 0.00 in 65 W/m2
13:59 53.3 °F 52.2 °F 29.91 in ENE 0.4 mph 5 mph 96% 0.00 in 69 W/m2
14:04 53.2 °F 52.1 °F 29.91 in NE 0.6 mph 5 mph 96% 0.00 in 54 W/m2
14:09 53.2 °F 52.1 °F 29.91 in Calm   4 mph 96% 0.00 in 60 W/m2
14:14 53.2 °F 52.1 °F 29.91 in ENE 0.2 mph 4 mph 96% 0.00 in 60 W/m2
14:19 53.3 °F 52.2 °F 29.91 in NNE 0.1 mph 4 mph 96% 0.00 in 62 W/m2
14:24 53.4 °F 52.3 °F 29.91 in North 0.1 mph 4 mph 96% 0.00 in 54 W/m2
14:29 53.4 °F 52.3 °F 29.91 in North 0.1 mph 4 mph 96% 0.00 in 62 W/m2
14:34 53.4 °F 52.3 °F 29.91 in Calm   4 mph 96% 0.00 in 53 W/m2
14:39 53.3 °F 52.2 °F 29.91 in Calm   1 mph 96% 0.00 in 49 W/m2
14:44 53.3 °F 52.2 °F 29.91 in NNE 0.5 mph 4 mph 96% 0.00 in 40 W/m2
14:49 53.4 °F 52.3 °F 29.91 in North 0.1 mph 4 mph 96% 0.00 in 39 W/m2
14:54 53.4 °F 52.3 °F 29.90 in Calm   4 mph 96% 0.00 in 35 W/m2
14:59 53.5 °F 52.4 °F 29.91 in NE 0.2 mph 4 mph 96% 0.00 in 49 W/m2
15:04 53.4 °F 52.3 °F 29.91 in ENE 0.2 mph 4 mph 96% 0.00 in 49 W/m2
15:09 53.5 °F 52.4 °F 29.90 in Calm   3 mph 96% 0.00 in 47 W/m2
15:14 53.5 °F 52.4 °F 29.91 in ENE 0.1 mph 3 mph 96% 0.00 in 42 W/m2
15:19 53.5 °F 52.4 °F 29.91 in ENE 0.1 mph 3 mph 96% 0.00 in 40 W/m2
15:24 53.5 °F 52.4 °F 29.91 in ENE 0.1 mph 3 mph 96% 0.00 in 44 W/m2
15:29 53.4 °F 52.3 °F 29.91 in ENE 0.3 mph 3 mph 96% 0.00 in 40 W/m2
15:34 53.5 °F 52.4 °F 29.91 in Calm   3 mph 96% 0.00 in 40 W/m2
15:39 53.5 °F 52.4 °F 29.91 in Calm     96% 0.00 in 39 W/m2
15:44 53.6 °F 52.5 °F 29.91 in Calm     96% 0.00 in 46 W/m2
15:49 53.6 °F 52.5 °F 29.90 in Calm   1 mph 96% 0.00 in 44 W/m2
15:54 53.6 °F 52.5 °F 29.90 in Calm   1 mph 96% 0.00 in 46 W/m2
15:59 53.7 °F 52.6 °F 29.90 in NE 0.1 mph 2 mph 96% 0.00 in 42 W/m2
16:00 53.7 °F 52.6 °F 29.89 in Calm   2 mph 96% 0.00 in 32 W/m2
16:09 53.7 °F 52.6 °F 29.89 in North 0.3 mph 3 mph 96% 0.00 in 32 W/m2
16:14 53.6 °F 52.5 °F 29.89 in North 0.3 mph 3 mph 96% 0.00 in 32 W/m2
16:19 53.6 °F 52.5 °F 29.89 in North 0.2 mph 3 mph 96% 0.00 in 32 W/m2
16:24 53.6 °F 52.5 °F 29.89 in Calm   3 mph 96% 0.00 in 23 W/m2
16:29 53.6 °F 52.5 °F 29.89 in NNW 0.2 mph 3 mph 96% 0.00 in 25 W/m2
16:34 53.5 °F 52.4 °F 29.89 in NW 0.8 mph 7 mph 96% 0.00 in 19 W/m2
16:39 53.4 °F 52.3 °F 29.89 in NW 0.2 mph 7 mph 96% 0.00 in 16 W/m2
16:44 53.4 °F 52.3 °F 29.89 in NW 0.4 mph 7 mph 96% 0.00 in 12 W/m2
16:49 53.4 °F 52.2 °F 29.89 in NNW 0.3 mph 7 mph 96% 0.00 in 14 W/m2
16:54 53.3 °F 52.2 °F 29.89 in NNW 0.1 mph 7 mph 96% 0.00 in 12 W/m2
16:59 53.3 °F 52.2 °F 29.89 in NNW 0.1 mph 7 mph 96% 0.00 in 11 W/m2
17:04 53.3 °F 52.2 °F 29.89 in NNW 0.2 mph 7 mph 96% 0.00 in 11 W/m2
17:09 53.3 °F 52.2 °F 29.89 in NNW 0.5 mph 5 mph 96% 0.00 in 9 W/m2
17:14 53.2 °F 52.1 °F 29.89 in NNW 0.1 mph 5 mph 96% 0.00 in 7 W/m2
17:19 53.2 °F 52.1 °F 29.90 in Calm   5 mph 96% 0.00 in 5 W/m2
17:24 53.2 °F 52.1 °F 29.90 in NNW 0.3 mph 5 mph 96% 0.00 in 5 W/m2
17:29 53.1 °F 52 °F 29.89 in North 0.2 mph 5 mph 96% 0.00 in 7 W/m2
17:34 53.1 °F 52 °F 29.89 in NE 0.1 mph 5 mph 96% 0.00 in 7 W/m2
17:39 53.1 °F 52 °F 29.89 in Calm   1 mph 96% 0.00 in 5 W/m2
17:44 53.1 °F 52 °F 29.89 in North 0.5 mph 5 mph 96% 0.00 in 0 W/m2
17:49 53.1 °F 52 °F 29.89 in NNE 0.2 mph 5 mph 96% 0.00 in 0 W/m2
17:54 53 °F 51.9 °F 29.89 in NNE 0.1 mph 5 mph 96% 0.00 in 0 W/m2
17:59 53 °F 51.9 °F 29.89 in NNE 0.1 mph 5 mph 96% 0.00 in 0 W/m2
18:04 53 °F 51.9 °F 29.89 in Calm   5 mph 96% 0.00 in 0 W/m2
18:09 52.9 °F 51.8 °F 29.89 in NW 0.3 mph 3 mph 96% 0.00 in 0 W/m2
18:14 52.9 °F 51.8 °F 29.89 in NW 0.4 mph 5 mph 96% 0.00 in 0 W/m2
18:19 52.9 °F 51.8 °F 29.88 in NW 0.6 mph 5 mph 96% 0.00 in 0 W/m2
18:24 52.8 °F 51.7 °F 29.88 in NNW 0.2 mph 5 mph 96% 0.00 in 0 W/m2
18:29 52.8 °F 51.7 °F 29.88 in NNE 0.1 mph 5 mph 96% 0.00 in 0 W/m2
18:34 52.8 °F 51.7 °F 29.88 in NNW 0.3 mph 5 mph 96% 0.00 in 0 W/m2
18:39 52.7 °F 51.6 °F 29.88 in NNW 0.5 mph 4 mph 96% 0.00 in 0 W/m2
18:44 52.7 °F 51.6 °F 29.88 in NE 0.1 mph 4 mph 96% 0.00 in 0 W/m2
18:49 52.7 °F 51.6 °F 29.88 in NNE 0.1 mph 4 mph 96% 0.00 in 0 W/m2
18:54 52.7 °F 51.6 °F 29.88 in North 0.3 mph 4 mph 96% 0.00 in 0 W/m2
18:59 52.7 °F 51.6 °F 29.88 in Calm   4 mph 96% 0.00 in 0 W/m2
19:04 52.7 °F 51.6 °F 29.88 in North 0.1 mph 4 mph 96% 0.00 in 0 W/m2
19:09 52.7 °F 51.6 °F 29.89 in NNW 0.2 mph 4 mph 96% 0.00 in 0 W/m2
19:14 52.7 °F 51.6 °F 29.89 in NNW 0.1 mph 4 mph 96% 0.00 in 0 W/m2
19:19 52.7 °F 51.6 °F 29.89 in NNW 0.1 mph 4 mph 96% 0.00 in 0 W/m2
19:24 52.7 °F 51.6 °F 29.89 in NNE 0.1 mph 4 mph 96% 0.00 in 0 W/m2
19:29 52.7 °F 51.6 °F 29.88 in Calm   4 mph 96% 0.00 in 0 W/m2
19:34 52.6 °F 51.5 °F 29.88 in NE 0.1 mph 4 mph 96% 0.00 in 0 W/m2
19:39 52.6 °F 51.5 °F 29.88 in Calm   2 mph 96% 0.00 in 0 W/m2
19:44 52.6 °F 51.5 °F 29.88 in NNE 0.3 mph 3 mph 96% 0.00 in 0 W/m2
19:49 52.6 °F 51.5 °F 29.89 in NE 0.3 mph 4 mph 96% 0.00 in 0 W/m2
19:54 52.5 °F 51.4 °F 29.89 in NE 0.1 mph 4 mph 96% 0.00 in 0 W/m2
19:59 52.5 °F 51.4 °F 29.89 in NNE 0.1 mph 4 mph 96% 0.00 in 0 W/m2
20:00 52.6 °F 51.5 °F 29.88 in Calm   4 mph 96% 0.00 in 0 W/m2
20:09 52.6 °F 51.5 °F 29.89 in NNW 0.2 mph 3 mph 96% 0.00 in 0 W/m2
20:14 52.6 °F 51.5 °F 29.89 in NNW 0.4 mph 4 mph 96% 0.00 in 0 W/m2
20:19 52.6 °F 51.5 °F 29.89 in NE 0.4 mph 4 mph 96% 0.00 in 0 W/m2
20:24 52.5 °F 51.4 °F 29.88 in NE 0.1 mph 4 mph 96% 0.00 in 0 W/m2
20:29 52.5 °F 51.4 °F 29.88 in Calm   4 mph 96% 0.00 in 0 W/m2
20:34 52.5 °F 51.4 °F 29.87 in ENE 0.9 mph 6 mph 96% 0.00 in 0 W/m2
20:39 52.4 °F 51.3 °F 29.87 in NE 0.5 mph 6 mph 96% 0.00 in 0 W/m2
20:44 52.4 °F 51.3 °F 29.87 in NNE 0.5 mph 6 mph 96% 0.00 in 0 W/m2
20:49 52.4 °F 51.3 °F 29.87 in Calm   6 mph 96% 0.00 in 0 W/m2
20:54 52.4 °F 51.3 °F 29.87 in ENE 0.2 mph 6 mph 96% 0.00 in 0 W/m2
20:59 52.4 °F 51.3 °F 29.87 in NNE 0.1 mph 6 mph 96% 0.00 in 0 W/m2
21:04 52.3 °F 51.2 °F 29.87 in East 0.3 mph 6 mph 96% 0.00 in 0 W/m2
21:09 52.3 °F 51.2 °F 29.87 in NE 0.2 mph 4 mph 96% 0.00 in 0 W/m2
21:14 52.2 °F 51.1 °F 29.87 in NE 0.1 mph 4 mph 96% 0.00 in 0 W/m2
21:19 52.2 °F 51.1 °F 29.87 in ENE 0.2 mph 4 mph 96% 0.00 in 0 W/m2
21:24 52.1 °F 51 °F 29.87 in Calm   4 mph 96% 0.00 in 0 W/m2
21:29 52.1 °F 51 °F 29.87 in NNW 0.2 mph 6 mph 96% 0.00 in 0 W/m2
21:34 52.1 °F 51 °F 29.87 in North 0.4 mph 6 mph 96% 0.00 in 0 W/m2
21:39 52 °F 50.9 °F 29.86 in NNW 0.2 mph 5 mph 96% 0.00 in 0 W/m2
21:44 52 °F 50.9 °F 29.87 in NNE 0.3 mph 5 mph 96% 0.00 in 0 W/m2
21:49 52 °F 50.9 °F 29.87 in ENE 0.2 mph 5 mph 96% 0.00 in 0 W/m2
21:54 51.9 °F 50.8 °F 29.86 in NE 0.3 mph 5 mph 96% 0.00 in 0 W/m2
21:59 51.9 °F 50.8 °F 29.86 in NE 0.5 mph 6 mph 96% 0.00 in 0 W/m2
22:04 51.8 °F 50.7 °F 29.86 in ENE 0.4 mph 6 mph 96% 0.00 in 0 W/m2
22:09 51.7 °F 50.6 °F 29.86 in ENE 0.2 mph 3 mph 96% 0.00 in 0 W/m2
22:14 51.7 °F 50.6 °F 29.86 in NNW 0.4 mph 6 mph 96% 0.00 in 0 W/m2
22:19 51.6 °F 50.5 °F 29.86 in NE 0.5 mph 6 mph 96% 0.00 in 0 W/m2
22:24 51.6 °F 50.5 °F 29.86 in NNE 0.1 mph 6 mph 96% 0.00 in 0 W/m2
22:29 51.5 °F 50.4 °F 29.86 in NE 0.4 mph 6 mph 96% 0.00 in 0 W/m2
22:34 51.4 °F 50.3 °F 29.86 in NE 0.2 mph 6 mph 96% 0.00 in 0 W/m2
22:39 51.4 °F 50.3 °F 29.86 in NNE 0.4 mph 5 mph 96% 0.00 in 0 W/m2
22:44 51.3 °F 50.2 °F 29.86 in NNE 0.7 mph 5 mph 96% 0.00 in 0 W/m2
22:49 51.2 °F 50.1 °F 29.85 in ENE 0.3 mph 5 mph 96% 0.00 in 0 W/m2
22:54 51.2 °F 50.1 °F 29.85 in NE 0.5 mph 5 mph 96% 0.00 in 0 W/m2
22:59 51.1 °F 50 °F 29.85 in NNE 0.4 mph 5 mph 96% 0.00 in 0 W/m2
23:04 51.1 °F 50 °F 29.85 in North 1 mph 13 mph 96% 0.00 in 0 W/m2
23:09 51 °F 49.9 °F 29.84 in North 0.6 mph 13 mph 96% 0.00 in 0 W/m2
23:14 51 °F 49.9 °F 29.84 in NNE 0.4 mph 13 mph 96% 0.00 in 0 W/m2
23:19 50.8 °F 49.7 °F 29.84 in NNW 0.5 mph 13 mph 96% 0.00 in 0 W/m2
23:24 50.8 °F 49.7 °F 29.84 in NNW 0.7 mph 13 mph 96% 0.00 in 0 W/m2
23:29 50.8 °F 49.7 °F 29.84 in NNW 0.4 mph 13 mph 96% 0.00 in 0 W/m2
23:34 50.7 °F 49.6 °F 29.84 in NNE 0.2 mph 13 mph 96% 0.01 in 0 W/m2
23:39 50.6 °F 49.5 °F 29.84 in NNE 0.6 mph 5 mph 96% 0.01 in 0 W/m2
23:44 50.6 °F 49.5 °F 29.84 in NNE 0.3 mph 6 mph 96% 0.01 in 0 W/m2
23:49 50.6 °F 49.5 °F 29.84 in NW 1 mph 7 mph 96% 0.01 in 0 W/m2
23:54 50.5 °F 49.4 °F 29.83 in NNE 0.5 mph 10 mph 96% 0.01 in 0 W/m2
23:59 50.4 °F 49.4 °F 29.83 in NNW 0.3 mph 10 mph 96% 0.02 in 0 W/m2
Hartford County Weather
Compliments of Weather Underground - 4 mb